Latest Coastal Weather Observations for Robe Airport

IDV60701

Issued at 7:52 pm EST Monday 4 May 2026 (issued every 10 minutes, with the page automatically refreshed every 10 minutes)

About coastal observations | Map of coastal stations | Coastal observations for VIC | Marine services | Other Formats
Station Details ID: 026105 Name: ROBE AIRFIELD Lat: -37.18 Lon: 139.81 Height: 3.0 m
Data from the previous 72 hours. | See also: Recent months at Robe Airport
Date/Time
EST
Wind Sea
Height
m
Swell Vis
km
Cloud Weather Temp
°C
Press
MSL
hPa
Rain since
9am
mm
Dir  Spd
kts
Gust
kts
Height
m
Period
s
Dir
04/07:30pm WSW 9 15 - - - - - - - 14.4 1015.4 1.6
04/07:00pm WSW 8 15 - - - - - - - 14.1 1014.9 1.6
04/06:30pm SW 11 16 - - - - - - Rain 14.3 1014.5 1.6
04/06:00pm WSW 8 15 - - - - - - - 14.6 1013.9 1.4
04/05:30pm WSW 11 19 - - - - - - - 14.9 1013.5 1.4
04/05:00pm WSW 11 18 - - - - - - - 15.2 1013.2 1.4
04/04:30pm WSW 11 18 - - - - - - - 15.8 1012.6 1.4
04/04:00pm WSW 12 20 - - - - - - - 16.4 1012.2 1.4
04/03:30pm WSW 11 18 - - - - - - - 15.5 1011.8 1.4
04/03:00pm WSW 11 19 - - - - - - - 15.6 1011.3 1.4
04/02:30pm SW 13 24 - - - - - - - 14.0 1011.0 1.4
04/02:00pm WSW 13 21 - - - - - - - 16.2 1010.6 0.8
04/01:49pm WSW 15 25 - - - - - - - 16.3 1010.5 0.8
04/01:30pm WSW 12 22 - - - - - - - 16.8 1010.2 0.8
04/01:00pm WSW 12 20 - - - - - - - 16.6 1010.1 0.8
04/12:30pm W 9 17 - - - - - - Recent precip. 16.6 1010.0 0.8
04/12:00pm W 9 17 - - - - - - - 16.8 1010.0 0.6
04/11:30am WSW 10 19 - - - - - - - 16.6 1009.8 0.6
04/11:00am W 9 17 - - - - - - - 15.2 1009.4 0.6
04/10:30am W 12 17 - - - - - - - 14.4 1009.0 0.6
04/10:00am W 10 18 - - - - - - - 14.7 1008.5 0.4
04/09:30am WSW 8 17 - - - - - - Rain 13.8 1008.3 17.4
04/09:00am W 8 11 - - - - - - - 14.3 1007.8 16.2
04/08:30am WNW 10 15 - - - - - - - 14.4 1007.3 16.2
04/08:00am WNW 9 14 - - - - - - - 14.0 1006.9 16.2
04/07:30am WNW 10 20 - - - - - - - 14.1 1006.5 16.0
04/07:00am WNW 11 19 - - - - - - - 14.3 1006.3 14.6
04/06:30am WNW 10 15 - - - - - - - 14.5 1005.9 14.6
04/06:00am WNW 14 22 - - - - - - - 14.4 1005.8 14.6
04/05:30am NW 14 21 - - - - - - - 14.4 1005.5 14.6
04/05:00am NW 11 19 - - - - - - - 14.2 1005.5 14.6
04/04:30am NW 10 16 - - - - - - - 14.6 1005.4 14.2
04/04:00am NNW 14 21 - - - - - - - 14.7 1005.4 13.4
04/03:43am NNW 15 25 - - - - - - - 14.5 1005.4 13.0
04/03:30am NNW 18 23 - - - - - - Recent precip. 14.6 1005.6 13.0
04/03:10am NNW 21 31 - - - - - - - 14.3 1005.6 13.0
04/03:00am NW 21 28 - - - - - - - 14.5 1005.6 11.8
04/02:48am NNW 20 32 - - - - - - - 14.3 1005.6 11.8
04/02:30am NNW 20 27 - - - - - - - 14.8 1005.7 11.0
04/02:05am NNW 19 30 - - - - - - - 14.8 1005.8 10.4
04/02:00am NNW 20 29 - - - - - - - 14.8 1005.8 10.2
04/01:30am NNW 19 26 - - - - - - - 15.6 1006.0 10.0
04/01:00am NNW 22 34 - - - - - - - 15.9 1006.1 10.0
04/12:32am NNW 20 31 - - - - - - - 15.7 1006.5 10.0
04/12:30am NNW 21 31 - - - - - - - 15.7 1006.5 10.0
04/12:12am NNW 20 31 - - - - - - - 15.8 1006.5 10.0
04/12:00am NNW 21 28 - - - - - - - 15.8 1006.5 10.0
 
Date/Time
EST
Wind Sea
Height
m
Swell Vis
km
Cloud Weather Temp
°C
Press
MSL
hPa
Rain since
9am
mm
Dir  Spd
kts
Gust
kts
Height
m
Period
s
Dir
03/11:35pm NNW 20 30 - - - - - - - 15.9 1006.8 10.0
03/11:30pm NNW 19 26 - - - - - - - 16.0 1006.8 10.0
03/11:00pm NNW 20 29 - - - - - - - 16.2 1007.3 10.0
03/10:30pm NNW 21 29 - - - - - - - 16.3 1007.5 10.0
03/10:00pm NNW 21 31 - - - - - - - 16.3 1007.6 10.0
03/09:59pm NNW 21 31 - - - - - - - 16.2 1007.6 10.0
03/09:30pm NNW 20 29 - - - - - - - 16.3 1007.5 10.0
03/09:08pm NNW 19 29 - - - - - - - 16.2 1007.5 10.0
03/09:00pm NNW 19 28 - - - - - - - 16.1 1007.5 10.0
03/08:30pm NNW 19 26 - - - - - - - 16.1 1007.4 10.0
03/08:00pm NNW 19 26 - - - - - - - 16.1 1007.4 10.0
03/07:30pm N 14 18 - - - - - - - 15.7 1007.3 10.0
03/07:00pm N 13 19 - - - - - - - 15.4 1007.1 10.0
03/06:30pm NNW 16 23 - - - - - - - 15.4 1006.9 10.0
03/06:23pm NNW 18 29 - - - - - - - 15.1 1006.8 10.0
03/06:00pm NNW 18 24 - - - - - - - 15.6 1006.8 10.0
03/05:30pm NNW 18 25 - - - - - - - 15.8 1006.7 10.0
03/05:00pm NNW 20 30 - - - - - - - 15.6 1006.7 10.0
03/04:30pm N 19 29 - - - - - - - 15.2 1006.7 10.0
03/04:21pm N 19 29 - - - - - - - 15.2 1006.7 10.0
03/04:00pm NNW 19 27 - - - - - - - 15.8 1006.6 10.0
03/03:30pm NNW 18 23 - - - - - - Recent precip. 15.4 1006.6 10.0
03/03:00pm NNW 19 26 - - - - - - - 14.8 1006.5 10.0
03/02:30pm N 17 23 - - - - - - - 14.9 1006.5 7.2
03/02:00pm NNW 17 23 - - - - - - - 14.4 1006.9 7.2
03/01:30pm N 16 24 - - - - - - - 14.1 1007.0 4.8
03/01:00pm N 17 28 - - - - - - - 14.0 1007.4 3.6
03/12:53pm N 16 28 - - - - - - - 13.8 1007.5 3.2
03/12:30pm N 16 21 - - - - - - Rain 13.2 1007.8 2.2
03/12:00pm NNW 20 31 - - - - - - - 14.2 1008.0 0.6
03/11:59am N 20 31 - - - - - - - 14.7 1007.9 0.2
03/11:30am NNW 20 28 - - - - - - - 15.9 1007.6 0.0
03/11:00am NNW 19 27 - - - - - - - 15.5 1007.8 0.0
03/10:43am NNW 20 31 - - - - - - - 15.8 1007.7 0.0
03/10:30am NNW 20 30 - - - - - - - 15.2 1007.9 0.0
03/10:03am NNW 16 27 - - - - - - - 15.3 1007.9 0.0
03/10:00am NNW 16 21 - - - - - - - 15.5 1007.7 0.0
03/09:30am NNW 18 25 - - - - - - - 15.4 1007.9 10.4
03/09:00am NNW 17 23 - - - - - - - 15.2 1007.7 10.4
03/08:30am NNW 16 24 - - - - - - - 14.2 1007.9 10.4
03/08:17am NNW 16 27 - - - - - - - 13.5 1007.9 10.4
03/08:00am N 12 19 - - - - - - - 12.9 1007.5 10.4
03/07:30am N 11 20 - - - - - - - 13.0 1007.5 10.4
03/07:00am NE 8 10 - - - - - - - 12.5 1007.1 9.2
03/06:30am N 9 12 - - - - - - - 12.7 1007.1 9.2
03/06:00am NNE 8 12 - - - - - - - 12.8 1007.1 9.2
03/05:30am NNE 8 13 - - - - - - - 12.9 1007.3 9.2
03/05:00am NNE 7 9 - - - - - - - 12.9 1007.1 9.2
03/04:30am N 9 15 - - - - - - - 13.3 1007.1 9.2
03/04:00am N 7 11 - - - - - - - 12.7 1007.3 9.2
03/03:30am NNE 10 14 - - - - - - - 13.2 1007.3 9.2
03/03:00am NNE 9 12 - - - - - - - 13.1 1007.6 9.2
03/02:30am NNE 8 10 - - - - - - - 13.2 1007.9 9.2
03/02:00am NNE 8 11 - - - - - - - 13.5 1008.1 9.2
03/01:30am NNE 7 9 - - - - - - - 13.8 1008.2 9.2
03/01:00am N 7 8 - - - - - - - 14.1 1008.4 9.2
03/12:30am N 7 9 - - - - - - - 13.7 1008.7 9.2
03/12:00am NNE 6 7 - - - - - - - 13.8 1008.8 9.2
 
Date/Time
EST
Wind Sea
Height
m
Swell Vis
km
Cloud Weather Temp
°C
Press
MSL
hPa
Rain since
9am
mm
Dir  Spd
kts
Gust
kts
Height
m
Period
s
Dir
02/11:30pm N 7 9 - - - - - - - 14.3 1008.9 9.2
02/11:00pm N 7 10 - - - - - - - 14.4 1009.0 9.2
02/10:30pm N 6 8 - - - - - - - 14.3 1009.1 9.2
02/10:00pm N 6 8 - - - - - - - 14.3 1009.1 9.2
02/09:30pm N 7 9 - - - - - - - 14.2 1009.1 9.0
02/09:00pm N 6 9 - - - - - - - 14.3 1009.1 9.0
02/08:30pm N 6 9 - - - - - - - 14.2 1008.9 9.0
02/08:00pm N 7 10 - - - - - - - 14.4 1009.0 9.0
02/07:30pm N 9 16 - - - - - - - 15.1 1009.2 8.8
02/07:00pm N 6 8 - - - - - - - 15.4 1008.9 8.4
02/06:30pm N 7 11 - - - - - - Rain 15.4 1008.9 6.8
02/06:00pm N 7 10 - - - - - - - 15.5 1008.4 6.0
02/05:30pm NNW 9 11 - - - - - - - 15.5 1008.3 5.8
02/05:00pm NNW 10 14 - - - - - - - 16.0 1008.4 4.6
02/04:30pm NW 6 10 - - - - - - - 16.2 1008.1 3.6
02/04:00pm NW 6 8 - - - - - - - 16.4 1007.9 1.4
02/03:30pm NNW 13 24 - - - - - - - 17.8 1007.9 0.2
02/03:00pm N 13 20 - - - - - - - 20.5 1006.8 0.2
02/02:30pm N 12 19 - - - - - - - 20.6 1007.0 0.2
02/02:00pm NNE 13 17 - - - - - - - 20.7 1007.1 0.2
02/01:30pm NNE 13 17 - - - - - - - 18.6 1007.3 0.2
02/01:00pm N 15 20 - - - - - - - 18.3 1007.8 0.2
02/12:30pm N 21 30 - - - - - - - 21.6 1008.4 0.0
02/12:15pm N 23 33 - - - - - - - 22.8 1008.8 0.0
02/12:00pm N 17 24 - - - - - - - 22.3 1008.7 0.0
02/11:38am N 21 33 - - - - - - - 23.9 1008.6 0.0
02/11:30am N 20 27 - - - - - - - 23.8 1008.5 0.0
02/11:00am N 20 31 - - - - - - - 23.9 1008.4 0.0
02/10:54am N 20 31 - - - - - - - 24.1 1008.5 0.0
02/10:30am N 18 25 - - - - - - - 23.9 1008.6 0.0
02/10:00am NNE 18 24 - - - - - - - 23.4 1008.4 0.0
02/09:30am NNE 17 24 - - - - - - - 22.9 1008.6 0.0
02/09:20am NNE 16 26 - - - - - - - 22.1 1008.8 0.0
02/09:00am NNE 17 26 - - - - - - - 22.1 1009.0 0.0
02/08:53am NNE 15 26 - - - - - - - 22.0 1009.1 0.0
02/08:30am NNE 18 25 - - - - - - - 21.8 1009.2 0.0
02/08:00am NNE 15 20 - - - - - - - 21.4 1009.3 0.0
02/07:30am NNE 15 20 - - - - - - - 21.0 1009.3 0.0
02/07:00am NNE 15 21 - - - - - - - 21.1 1009.5 0.0
02/06:30am NNE 15 21 - - - - - - - 21.1 1009.6 0.0
02/06:00am NNE 14 20 - - - - - - - 21.4 1009.7 0.0
02/05:30am NNE 14 20 - - - - - - - 21.4 1009.9 0.0
02/05:00am NNE 14 19 - - - - - - - 21.3 1010.0 0.0
02/04:30am NNE 14 19 - - - - - - - 21.4 1010.2 0.0
02/04:00am NNE 13 21 - - - - - - - 21.6 1010.5 0.0
02/03:30am NNE 12 16 - - - - - - - 21.7 1010.8 0.0
02/03:00am NNE 12 17 - - - - - - - 21.9 1011.0 0.0
02/02:30am NNE 13 17 - - - - - - - 22.0 1011.5 0.0
02/02:00am NNE 14 20 - - - - - - - 22.0 1011.8 0.0
02/01:30am NNE 13 21 - - - - - - - 22.1 1012.1 0.0
02/01:00am NNE 13 20 - - - - - - - 22.4 1012.5 0.0
02/12:30am NNE 14 19 - - - - - - - 22.5 1012.7 0.0
02/12:00am NNE 13 20 - - - - - - - 22.3 1013.1 0.0
 
Date/Time
EST
Wind Sea
Height
m
Swell Vis
km
Cloud Weather Temp
°C
Press
MSL
hPa
Rain since
9am
mm
Dir  Spd
kts
Gust
kts
Height
m
Period
s
Dir
01/11:30pm NNE 13 18 - - - - - - - 22.2 1013.6 0.0
01/11:00pm NE 11 15 - - - - - - - 21.8 1014.0 0.0
01/10:30pm NE 8 11 - - - - - - - 21.1 1014.1 0.0
01/10:00pm NE 8 11 - - - - - - - 21.5 1014.3 0.0
01/09:30pm NE 7 9 - - - - - - - 20.7 1014.7 0.0
01/09:00pm NE 6 8 - - - - - - - 20.4 1014.9 0.0
01/08:30pm NE 6 7 - - - - - - - 21.0 1015.0 0.0
01/08:00pm NE 5 7 - - - - - - - 20.9 1015.1 0.0

Other formats

Comma delimited format used in spreadsheet applications
http://www.bom.gov.au/fwo/IDV60701/IDV60701.95816.axf

JavaScript Object Notation format (JSON) in row-major order
http://www.bom.gov.au/fwo/IDV60701/IDV60701.95816.json

Data quality

Most of these data are generated automatically and are frequently updated. Quality checks on data are not normally performed. It is possible for incorrect values to appear. Refer to information at About Latest Weather Observations and please check the disclaimer before using these data.